Pontevedra, Spain
Current Conditions -  °F | °C
As of 7:00 AM on Tuesday 21 Oct 2014 (Local Time) from LEVX Reporting Station
Clear Clear  
Wind Chill: 63°   Ceiling: Unl
Heat Index: 63°   Visibility: 6mi
Dew Point: 61°   Wind: 8mph
Humidity: 94%   Direction: 220°SW
Pressure: 30.24"   Gusts: NA
Location:  42.43°N, 8.65°W
Report Text: LEVX 210500Z 22007KT CAVOK 17/16 Q1024 NOSIG
Loading
Personal Weather Stations






























Interactive Weather Map
Tropical Storm Tracking
New forecast layout! Learn more

10-Day Weather Forecast

Advertisements
Track Severe Weather on mobile